sensor_id;sensor_type;location;lat;lon;timestamp;temperature;humidity
13264;DHT22;6700;51.988;7.646;2022-09-24T00:01:35;12.80;99.90
13264;DHT22;6700;51.988;7.646;2022-09-24T00:04:06;12.70;99.90
13264;DHT22;6700;51.988;7.646;2022-09-24T00:06:40;12.70;99.90
13264;DHT22;6700;51.988;7.646;2022-09-24T00:09:09;12.70;99.90
13264;DHT22;6700;51.988;7.646;2022-09-24T00:11:37;12.70;99.90
13264;DHT22;6700;51.988;7.646;2022-09-24T00:14:04;12.80;99.90
13264;DHT22;6700;51.988;7.646;2022-09-24T00:16:32;12.70;99.90
13264;DHT22;6700;51.988;7.646;2022-09-24T00:19:01;12.80;99.90
13264;DHT22;6700;51.988;7.646;2022-09-24T00:21:32;12.70;99.90
13264;DHT22;6700;51.988;7.646;2022-09-24T00:24:02;12.60;99.90
13264;DHT22;6700;51.988;7.646;2022-09-24T00:26:29;12.70;99.90
13264;DHT22;6700;51.988;7.646;2022-09-24T00:29:19;12.70;99.90
13264;DHT22;6700;51.988;7.646;2022-09-24T00:31:47;12.70;99.90
13264;DHT22;6700;51.988;7.646;2022-09-24T00:34:14;12.80;99.90
13264;DHT22;6700;51.988;7.646;2022-09-24T00:36:44;12.70;99.90
13264;DHT22;6700;51.988;7.646;2022-09-24T00:39:13;12.70;99.90
13264;DHT22;6700;51.988;7.646;2022-09-24T00:41:41;12.80;99.90
13264;DHT22;6700;51.988;7.646;2022-09-24T00:49:49;12.80;99.90
13264;DHT22;6700;51.988;7.646;2022-09-24T00:52:17;12.80;99.90
13264;DHT22;6700;51.988;7.646;2022-09-24T00:54:45;12.80;99.90
13264;DHT22;6700;51.988;7.646;2022-09-24T00:57:13;12.80;99.90
13264;DHT22;6700;51.988;7.646;2022-09-24T00:59:40;12.80;99.90
13264;DHT22;6700;51.988;7.646;2022-09-24T01:02:07;12.90;99.90
13264;DHT22;6700;51.988;7.646;2022-09-24T01:04:34;12.80;99.90
13264;DHT22;6700;51.988;7.646;2022-09-24T01:07:01;12.90;99.90
13264;DHT22;6700;51.988;7.646;2022-09-24T01:09:28;12.90;99.90
13264;DHT22;6700;51.988;7.646;2022-09-24T01:18:06;12.70;99.90
13264;DHT22;6700;51.988;7.646;2022-09-24T01:20:35;12.80;99.90
13264;DHT22;6700;51.988;7.646;2022-09-24T01:31:36;12.70;99.90
13264;DHT22;6700;51.988;7.646;2022-09-24T01:34:06;12.60;99.90
13264;DHT22;6700;51.988;7.646;2022-09-24T01:36:35;12.70;99.90
13264;DHT22;6700;51.988;7.646;2022-09-24T01:39:05;12.60;99.90
13264;DHT22;6700;51.988;7.646;2022-09-24T01:41:35;12.70;99.90
13264;DHT22;6700;51.988;7.646;2022-09-24T01:44:05;12.70;99.90
13264;DHT22;6700;51.988;7.646;2022-09-24T01:46:37;12.60;99.90
13264;DHT22;6700;51.988;7.646;2022-09-24T01:49:04;12.60;99.90
13264;DHT22;6700;51.988;7.646;2022-09-24T01:51:51;12.70;99.90
13264;DHT22;6700;51.988;7.646;2022-09-24T01:54:34;12.60;99.90
13264;DHT22;6700;51.988;7.646;2022-09-24T01:57:20;12.70;99.90
13264;DHT22;6700;51.988;7.646;2022-09-24T02:00:04;12.70;99.90
13264;DHT22;6700;51.988;7.646;2022-09-24T02:02:48;12.60;99.90
13264;DHT22;6700;51.988;7.646;2022-09-24T02:05:47;12.60;99.90
13264;DHT22;6700;51.988;7.646;2022-09-24T02:08:27;12.50;99.90
13264;DHT22;6700;51.988;7.646;2022-09-24T02:10:56;12.50;99.90
13264;DHT22;6700;51.988;7.646;2022-09-24T02:13:28;12.50;99.90
13264;DHT22;6700;51.988;7.646;2022-09-24T02:15:59;12.50;99.90
13264;DHT22;6700;51.988;7.646;2022-09-24T02:18:33;12.50;99.90
13264;DHT22;6700;51.988;7.646;2022-09-24T02:21:11;12.40;99.90
13264;DHT22;6700;51.988;7.646;2022-09-24T02:23:44;12.50;99.90
13264;DHT22;6700;51.988;7.646;2022-09-24T02:26:13;12.40;99.90
13264;DHT22;6700;51.988;7.646;2022-09-24T02:28:40;12.40;99.90
13264;DHT22;6700;51.988;7.646;2022-09-24T02:31:17;12.40;99.90
13264;DHT22;6700;51.988;7.646;2022-09-24T02:33:47;12.40;99.90
13264;DHT22;6700;51.988;7.646;2022-09-24T02:36:34;12.30;99.90
13264;DHT22;6700;51.988;7.646;2022-09-24T02:39:01;12.30;99.90
13264;DHT22;6700;51.988;7.646;2022-09-24T02:41:30;12.30;99.90
13264;DHT22;6700;51.988;7.646;2022-09-24T02:43:57;12.30;99.90
13264;DHT22;6700;51.988;7.646;2022-09-24T02:46:24;12.40;99.90
13264;DHT22;6700;51.988;7.646;2022-09-24T02:48:51;12.40;99.90
13264;DHT22;6700;51.988;7.646;2022-09-24T02:51:18;12.40;99.90
13264;DHT22;6700;51.988;7.646;2022-09-24T02:53:45;12.40;99.90
13264;DHT22;6700;51.988;7.646;2022-09-24T02:56:12;12.40;99.90
13264;DHT22;6700;51.988;7.646;2022-09-24T02:58:39;12.40;99.90
13264;DHT22;6700;51.988;7.646;2022-09-24T03:01:06;12.40;99.90
13264;DHT22;6700;51.988;7.646;2022-09-24T03:03:33;12.40;99.90
13264;DHT22;6700;51.988;7.646;2022-09-24T03:06:00;12.40;99.90
13264;DHT22;6700;51.988;7.646;2022-09-24T03:08:26;12.30;99.90
13264;DHT22;6700;51.988;7.646;2022-09-24T03:10:53;12.30;99.90
13264;DHT22;6700;51.988;7.646;2022-09-24T03:13:21;12.40;99.90
13264;DHT22;6700;51.988;7.646;2022-09-24T03:15:48;12.30;99.90
13264;DHT22;6700;51.988;7.646;2022-09-24T03:18:16;12.40;99.90
13264;DHT22;6700;51.988;7.646;2022-09-24T03:20:42;12.40;99.90
13264;DHT22;6700;51.988;7.646;2022-09-24T03:23:09;12.40;99.90
13264;DHT22;6700;51.988;7.646;2022-09-24T03:25:36;12.40;99.90
13264;DHT22;6700;51.988;7.646;2022-09-24T03:28:03;12.40;99.90
13264;DHT22;6700;51.988;7.646;2022-09-24T03:30:29;12.40;99.90
13264;DHT22;6700;51.988;7.646;2022-09-24T03:33:15;12.40;99.90
13264;DHT22;6700;51.988;7.646;2022-09-24T03:35:42;12.40;99.90
13264;DHT22;6700;51.988;7.646;2022-09-24T03:38:08;12.40;99.90
13264;DHT22;6700;51.988;7.646;2022-09-24T03:40:36;12.40;99.90
13264;DHT22;6700;51.988;7.646;2022-09-24T03:43:03;12.40;99.90
13264;DHT22;6700;51.988;7.646;2022-09-24T03:45:30;12.40;99.90
13264;DHT22;6700;51.988;7.646;2022-09-24T03:47:57;12.40;99.90
13264;DHT22;6700;51.988;7.646;2022-09-24T03:50:24;12.40;99.90
13264;DHT22;6700;51.988;7.646;2022-09-24T03:52:51;12.40;99.90
13264;DHT22;6700;51.988;7.646;2022-09-24T03:55:18;12.40;99.90
13264;DHT22;6700;51.988;7.646;2022-09-24T03:57:44;12.40;99.90
13264;DHT22;6700;51.988;7.646;2022-09-24T04:00:11;12.40;99.90
13264;DHT22;6700;51.988;7.646;2022-09-24T04:02:38;12.40;99.90
13264;DHT22;6700;51.988;7.646;2022-09-24T04:05:06;12.50;99.90
13264;DHT22;6700;51.988;7.646;2022-09-24T04:07:33;12.40;99.90
13264;DHT22;6700;51.988;7.646;2022-09-24T04:10:00;12.50;99.90
13264;DHT22;6700;51.988;7.646;2022-09-24T04:12:27;12.50;99.90
13264;DHT22;6700;51.988;7.646;2022-09-24T04:14:55;12.50;99.90
13264;DHT22;6700;51.988;7.646;2022-09-24T04:17:22;12.50;99.90
13264;DHT22;6700;51.988;7.646;2022-09-24T04:19:48;12.50;99.90
13264;DHT22;6700;51.988;7.646;2022-09-24T04:22:19;12.50;99.90
13264;DHT22;6700;51.988;7.646;2022-09-24T04:24:46;12.50;99.90
13264;DHT22;6700;51.988;7.646;2022-09-24T04:27:13;12.50;99.90
13264;DHT22;6700;51.988;7.646;2022-09-24T04:29:40;12.50;99.90
13264;DHT22;6700;51.988;7.646;2022-09-24T04:32:07;12.50;99.90
13264;DHT22;6700;51.988;7.646;2022-09-24T04:34:34;12.50;99.90
13264;DHT22;6700;51.988;7.646;2022-09-24T04:37:04;12.50;99.90
13264;DHT22;6700;51.988;7.646;2022-09-24T04:39:35;12.50;99.90
13264;DHT22;6700;51.988;7.646;2022-09-24T04:42:08;12.50;99.90
13264;DHT22;6700;51.988;7.646;2022-09-24T04:44:36;12.50;99.90
13264;DHT22;6700;51.988;7.646;2022-09-24T04:47:03;12.50;99.90
13264;DHT22;6700;51.988;7.646;2022-09-24T04:49:34;12.50;99.90
13264;DHT22;6700;51.988;7.646;2022-09-24T04:52:01;12.50;99.90
13264;DHT22;6700;51.988;7.646;2022-09-24T04:54:50;12.50;99.90
13264;DHT22;6700;51.988;7.646;2022-09-24T04:57:17;12.50;99.90
13264;DHT22;6700;51.988;7.646;2022-09-24T04:59:44;12.50;99.90
13264;DHT22;6700;51.988;7.646;2022-09-24T05:02:11;12.50;99.90
13264;DHT22;6700;51.988;7.646;2022-09-24T05:04:38;12.50;99.90
13264;DHT22;6700;51.988;7.646;2022-09-24T05:07:05;12.40;99.90
13264;DHT22;6700;51.988;7.646;2022-09-24T05:09:31;12.40;99.90
13264;DHT22;6700;51.988;7.646;2022-09-24T05:11:58;12.40;99.90
13264;DHT22;6700;51.988;7.646;2022-09-24T05:14:25;12.40;99.90
13264;DHT22;6700;51.988;7.646;2022-09-24T05:16:52;12.40;99.90
13264;DHT22;6700;51.988;7.646;2022-09-24T05:19:20;12.40;99.90
13264;DHT22;6700;51.988;7.646;2022-09-24T05:21:47;12.40;99.90
13264;DHT22;6700;51.988;7.646;2022-09-24T05:24:14;12.40;99.90
13264;DHT22;6700;51.988;7.646;2022-09-24T05:26:41;12.40;99.90
13264;DHT22;6700;51.988;7.646;2022-09-24T05:29:26;12.40;99.90
13264;DHT22;6700;51.988;7.646;2022-09-24T05:31:53;12.40;99.90
13264;DHT22;6700;51.988;7.646;2022-09-24T05:34:19;12.40;99.90
13264;DHT22;6700;51.988;7.646;2022-09-24T05:36:46;12.40;99.90
13264;DHT22;6700;51.988;7.646;2022-09-24T05:39:13;12.40;99.90
13264;DHT22;6700;51.988;7.646;2022-09-24T05:41:40;12.40;99.90
13264;DHT22;6700;51.988;7.646;2022-09-24T05:44:07;12.40;99.90
13264;DHT22;6700;51.988;7.646;2022-09-24T05:46:34;12.40;99.90
13264;DHT22;6700;51.988;7.646;2022-09-24T05:49:01;12.40;99.90
13264;DHT22;6700;51.988;7.646;2022-09-24T05:51:28;12.40;99.90
13264;DHT22;6700;51.988;7.646;2022-09-24T05:53:54;12.40;99.90
13264;DHT22;6700;51.988;7.646;2022-09-24T05:56:21;12.50;99.90
13264;DHT22;6700;51.988;7.646;2022-09-24T05:58:49;12.50;99.90
13264;DHT22;6700;51.988;7.646;2022-09-24T06:01:16;12.50;99.90
13264;DHT22;6700;51.988;7.646;2022-09-24T06:03:43;12.50;99.90
13264;DHT22;6700;51.988;7.646;2022-09-24T06:06:09;12.50;99.90
13264;DHT22;6700;51.988;7.646;2022-09-24T06:08:36;12.50;99.90
13264;DHT22;6700;51.988;7.646;2022-09-24T06:11:05;12.50;99.90
13264;DHT22;6700;51.988;7.646;2022-09-24T06:13:32;12.50;99.90
13264;DHT22;6700;51.988;7.646;2022-09-24T06:16:05;12.60;99.90
13264;DHT22;6700;51.988;7.646;2022-09-24T06:18:36;12.60;99.90
13264;DHT22;6700;51.988;7.646;2022-09-24T06:21:07;12.60;99.90
13264;DHT22;6700;51.988;7.646;2022-09-24T06:23:36;12.60;99.90
13264;DHT22;6700;51.988;7.646;2022-09-24T06:26:05;12.70;99.90
13264;DHT22;6700;51.988;7.646;2022-09-24T06:28:36;12.70;99.90
13264;DHT22;6700;51.988;7.646;2022-09-24T06:31:05;12.70;99.90
13264;DHT22;6700;51.988;7.646;2022-09-24T06:33:32;12.70;99.90
13264;DHT22;6700;51.988;7.646;2022-09-24T06:35:59;12.80;99.90
13264;DHT22;6700;51.988;7.646;2022-09-24T06:38:27;12.80;99.90
13264;DHT22;6700;51.988;7.646;2022-09-24T06:40:59;12.80;99.90
13264;DHT22;6700;51.988;7.646;2022-09-24T06:43:26;12.80;99.90
13264;DHT22;6700;51.988;7.646;2022-09-24T06:45:57;12.80;99.90
13264;DHT22;6700;51.988;7.646;2022-09-24T06:48:24;12.90;99.90
13264;DHT22;6700;51.988;7.646;2022-09-24T06:50:52;12.90;99.90
13264;DHT22;6700;51.988;7.646;2022-09-24T06:53:20;13.00;99.90
13264;DHT22;6700;51.988;7.646;2022-09-24T06:55:47;13.00;99.90
13264;DHT22;6700;51.988;7.646;2022-09-24T06:58:19;13.10;99.90
13264;DHT22;6700;51.988;7.646;2022-09-24T07:00:58;13.10;99.90
13264;DHT22;6700;51.988;7.646;2022-09-24T07:03:31;13.20;99.90
13264;DHT22;6700;51.988;7.646;2022-09-24T07:06:00;13.20;99.90
13264;DHT22;6700;51.988;7.646;2022-09-24T07:08:28;13.20;99.90
13264;DHT22;6700;51.988;7.646;2022-09-24T07:10:55;13.20;99.90
13264;DHT22;6700;51.988;7.646;2022-09-24T07:13:21;13.20;99.90
13264;DHT22;6700;51.988;7.646;2022-09-24T07:15:50;13.30;99.90
13264;DHT22;6700;51.988;7.646;2022-09-24T07:18:18;13.30;99.90
13264;DHT22;6700;51.988;7.646;2022-09-24T07:20:55;13.30;99.90
13264;DHT22;6700;51.988;7.646;2022-09-24T07:23:22;13.40;99.90
13264;DHT22;6700;51.988;7.646;2022-09-24T07:25:49;13.40;99.90
13264;DHT22;6700;51.988;7.646;2022-09-24T07:28:17;13.50;99.90
13264;DHT22;6700;51.988;7.646;2022-09-24T07:30:55;13.50;99.90
13264;DHT22;6700;51.988;7.646;2022-09-24T07:33:22;13.50;99.90
13264;DHT22;6700;51.988;7.646;2022-09-24T07:35:49;13.50;99.90
13264;DHT22;6700;51.988;7.646;2022-09-24T07:38:16;13.60;99.90
13264;DHT22;6700;51.988;7.646;2022-09-24T07:40:43;13.60;99.90
13264;DHT22;6700;51.988;7.646;2022-09-24T07:43:10;13.60;99.90
13264;DHT22;6700;51.988;7.646;2022-09-24T07:45:41;13.70;99.90
13264;DHT22;6700;51.988;7.646;2022-09-24T07:48:09;13.70;99.90
13264;DHT22;6700;51.988;7.646;2022-09-24T07:50:41;13.80;99.90
13264;DHT22;6700;51.988;7.646;2022-09-24T07:53:11;13.80;99.90
13264;DHT22;6700;51.988;7.646;2022-09-24T07:55:39;13.90;99.90
13264;DHT22;6700;51.988;7.646;2022-09-24T07:58:09;13.90;99.90
13264;DHT22;6700;51.988;7.646;2022-09-24T08:00:36;14.00;99.90
13264;DHT22;6700;51.988;7.646;2022-09-24T08:03:03;14.00;99.90
13264;DHT22;6700;51.988;7.646;2022-09-24T08:05:31;14.10;99.90
13264;DHT22;6700;51.988;7.646;2022-09-24T08:07:58;14.10;99.90
13264;DHT22;6700;51.988;7.646;2022-09-24T08:10:26;14.10;99.90
13264;DHT22;6700;51.988;7.646;2022-09-24T08:12:54;14.20;99.90
13264;DHT22;6700;51.988;7.646;2022-09-24T08:15:22;14.20;99.90
13264;DHT22;6700;51.988;7.646;2022-09-24T08:17:49;14.30;99.90
13264;DHT22;6700;51.988;7.646;2022-09-24T08:20:17;14.30;99.90
13264;DHT22;6700;51.988;7.646;2022-09-24T08:22:44;14.40;99.90
13264;DHT22;6700;51.988;7.646;2022-09-24T08:25:11;14.40;99.90
13264;DHT22;6700;51.988;7.646;2022-09-24T08:27:38;14.60;99.90
13264;DHT22;6700;51.988;7.646;2022-09-24T08:30:05;14.60;99.90
13264;DHT22;6700;51.988;7.646;2022-09-24T08:32:34;14.70;99.90
13264;DHT22;6700;51.988;7.646;2022-09-24T08:35:02;14.70;99.90
13264;DHT22;6700;51.988;7.646;2022-09-24T08:37:30;14.80;99.90
13264;DHT22;6700;51.988;7.646;2022-09-24T08:39:58;14.80;99.90
13264;DHT22;6700;51.988;7.646;2022-09-24T08:45:16;14.90;99.90
13264;DHT22;6700;51.988;7.646;2022-09-24T08:48:21;15.00;99.90
13264;DHT22;6700;51.988;7.646;2022-09-24T08:50:53;15.00;99.90
13264;DHT22;6700;51.988;7.646;2022-09-24T08:56:23;15.10;99.90
13264;DHT22;6700;51.988;7.646;2022-09-24T09:01:43;15.10;99.90
13264;DHT22;6700;51.988;7.646;2022-09-24T09:07:24;15.30;99.90
13264;DHT22;6700;51.988;7.646;2022-09-24T09:10:01;15.30;99.90
13264;DHT22;6700;51.988;7.646;2022-09-24T09:12:34;15.40;99.90
13264;DHT22;6700;51.988;7.646;2022-09-24T09:15:05;15.40;99.90
13264;DHT22;6700;51.988;7.646;2022-09-24T09:17:58;15.50;99.90
